sensor_id;sensor_type;location;lat;lon;timestamp;temperature;humidity
43049;DHT22;28673;44.412;11.918;2023-07-31T00:00:17;25.20;99.90
43049;DHT22;28673;44.412;11.918;2023-07-31T00:02:43;25.20;99.90
43049;DHT22;28673;44.412;11.918;2023-07-31T00:05:09;25.20;99.90
43049;DHT22;28673;44.412;11.918;2023-07-31T00:07:35;25.20;99.90
43049;DHT22;28673;44.412;11.918;2023-07-31T00:10:01;25.10;99.90
43049;DHT22;28673;44.412;11.918;2023-07-31T00:12:28;25.10;99.90
43049;DHT22;28673;44.412;11.918;2023-07-31T00:14:53;25.10;99.90
43049;DHT22;28673;44.412;11.918;2023-07-31T00:17:19;25.00;99.90
43049;DHT22;28673;44.412;11.918;2023-07-31T00:19:45;25.00;99.90
43049;DHT22;28673;44.412;11.918;2023-07-31T00:22:16;25.00;99.90
43049;DHT22;28673;44.412;11.918;2023-07-31T00:24:42;25.00;99.90
43049;DHT22;28673;44.412;11.918;2023-07-31T00:27:07;25.00;99.90
43049;DHT22;28673;44.412;11.918;2023-07-31T00:29:33;25.00;99.90
43049;DHT22;28673;44.412;11.918;2023-07-31T00:31:59;25.00;99.90
43049;DHT22;28673;44.412;11.918;2023-07-31T00:34:25;25.00;99.90
43049;DHT22;28673;44.412;11.918;2023-07-31T00:36:51;25.00;99.90
43049;DHT22;28673;44.412;11.918;2023-07-31T00:39:16;24.90;99.90
43049;DHT22;28673;44.412;11.918;2023-07-31T00:41:44;24.90;99.90
43049;DHT22;28673;44.412;11.918;2023-07-31T00:44:10;24.90;99.90
43049;DHT22;28673;44.412;11.918;2023-07-31T00:46:36;24.90;99.90
43049;DHT22;28673;44.412;11.918;2023-07-31T00:49:03;24.90;99.90
43049;DHT22;28673;44.412;11.918;2023-07-31T00:51:29;24.90;99.90
43049;DHT22;28673;44.412;11.918;2023-07-31T00:53:55;24.90;99.90
43049;DHT22;28673;44.412;11.918;2023-07-31T00:56:22;24.90;99.90
43049;DHT22;28673;44.412;11.918;2023-07-31T00:58:49;24.90;99.90
43049;DHT22;28673;44.412;11.918;2023-07-31T01:01:15;24.90;99.90
43049;DHT22;28673;44.412;11.918;2023-07-31T01:03:41;24.80;99.90
43049;DHT22;28673;44.412;11.918;2023-07-31T01:11:22;24.70;99.90
43049;DHT22;28673;44.412;11.918;2023-07-31T01:13:50;24.70;99.90
43049;DHT22;28673;44.412;11.918;2023-07-31T01:16:16;24.70;99.90
43049;DHT22;28673;44.412;11.918;2023-07-31T01:18:42;24.70;99.90
43049;DHT22;28673;44.412;11.918;2023-07-31T01:24:21;24.70;99.90
43049;DHT22;28673;44.412;11.918;2023-07-31T01:26:56;24.60;99.90
43049;DHT22;28673;44.412;11.918;2023-07-31T01:29:48;24.60;99.90
43049;DHT22;28673;44.412;11.918;2023-07-31T01:32:18;24.60;99.90
43049;DHT22;28673;44.412;11.918;2023-07-31T01:34:48;24.60;99.90
43049;DHT22;28673;44.412;11.918;2023-07-31T01:37:15;24.50;99.90
43049;DHT22;28673;44.412;11.918;2023-07-31T01:39:42;24.50;99.90
43049;DHT22;28673;44.412;11.918;2023-07-31T01:42:11;24.50;99.90
43049;DHT22;28673;44.412;11.918;2023-07-31T01:44:37;24.50;99.90
43049;DHT22;28673;44.412;11.918;2023-07-31T01:47:04;24.50;99.90
43049;DHT22;28673;44.412;11.918;2023-07-31T01:49:32;24.50;99.90
43049;DHT22;28673;44.412;11.918;2023-07-31T01:51:58;24.50;99.90
43049;DHT22;28673;44.412;11.918;2023-07-31T01:54:27;24.50;99.90
43049;DHT22;28673;44.412;11.918;2023-07-31T01:56:53;24.40;99.90
43049;DHT22;28673;44.412;11.918;2023-07-31T01:59:19;24.40;99.90
43049;DHT22;28673;44.412;11.918;2023-07-31T02:01:45;24.30;99.90
43049;DHT22;28673;44.412;11.918;2023-07-31T02:04:11;24.30;99.90
43049;DHT22;28673;44.412;11.918;2023-07-31T02:06:40;24.20;99.90
43049;DHT22;28673;44.412;11.918;2023-07-31T02:09:06;24.20;99.90
43049;DHT22;28673;44.412;11.918;2023-07-31T02:11:32;24.20;99.90
43049;DHT22;28673;44.412;11.918;2023-07-31T02:13:58;24.20;99.90
43049;DHT22;28673;44.412;11.918;2023-07-31T02:16:24;24.20;99.90
43049;DHT22;28673;44.412;11.918;2023-07-31T02:18:53;24.20;99.90
43049;DHT22;28673;44.412;11.918;2023-07-31T02:21:22;24.20;99.90
43049;DHT22;28673;44.412;11.918;2023-07-31T02:23:51;24.10;99.90
43049;DHT22;28673;44.412;11.918;2023-07-31T02:26:19;24.10;99.90
43049;DHT22;28673;44.412;11.918;2023-07-31T02:28:46;24.10;99.90
43049;DHT22;28673;44.412;11.918;2023-07-31T02:31:12;24.10;99.90
43049;DHT22;28673;44.412;11.918;2023-07-31T02:33:39;24.00;99.90
43049;DHT22;28673;44.412;11.918;2023-07-31T02:36:05;24.10;99.90
43049;DHT22;28673;44.412;11.918;2023-07-31T02:38:31;24.10;99.90
43049;DHT22;28673;44.412;11.918;2023-07-31T02:40:57;24.00;99.90
43049;DHT22;28673;44.412;11.918;2023-07-31T02:43:23;24.00;99.90
43049;DHT22;28673;44.412;11.918;2023-07-31T02:45:53;24.00;99.90
43049;DHT22;28673;44.412;11.918;2023-07-31T02:48:19;24.00;99.90
43049;DHT22;28673;44.412;11.918;2023-07-31T02:50:47;24.00;99.90
43049;DHT22;28673;44.412;11.918;2023-07-31T02:53:14;24.00;99.90
43049;DHT22;28673;44.412;11.918;2023-07-31T02:55:41;23.90;99.90
43049;DHT22;28673;44.412;11.918;2023-07-31T02:58:07;23.90;99.90
43049;DHT22;28673;44.412;11.918;2023-07-31T03:00:33;23.90;99.90
43049;DHT22;28673;44.412;11.918;2023-07-31T03:02:59;23.90;99.90
43049;DHT22;28673;44.412;11.918;2023-07-31T03:05:25;23.90;99.90
43049;DHT22;28673;44.412;11.918;2023-07-31T03:07:51;23.90;99.90
43049;DHT22;28673;44.412;11.918;2023-07-31T03:10:19;23.90;99.90
43049;DHT22;28673;44.412;11.918;2023-07-31T03:12:47;23.80;99.90
43049;DHT22;28673;44.412;11.918;2023-07-31T03:15:13;23.80;99.90
43049;DHT22;28673;44.412;11.918;2023-07-31T03:17:39;23.80;99.90
43049;DHT22;28673;44.412;11.918;2023-07-31T03:20:06;23.80;99.90
43049;DHT22;28673;44.412;11.918;2023-07-31T03:22:32;23.70;99.90
43049;DHT22;28673;44.412;11.918;2023-07-31T03:24:58;23.70;99.90
43049;DHT22;28673;44.412;11.918;2023-07-31T03:27:24;23.70;99.90
43049;DHT22;28673;44.412;11.918;2023-07-31T03:29:51;23.70;99.90
43049;DHT22;28673;44.412;11.918;2023-07-31T03:32:17;23.70;99.90
43049;DHT22;28673;44.412;11.918;2023-07-31T03:34:43;23.70;99.90
43049;DHT22;28673;44.412;11.918;2023-07-31T03:37:09;23.70;99.90
43049;DHT22;28673;44.412;11.918;2023-07-31T03:39:38;23.60;99.90
43049;DHT22;28673;44.412;11.918;2023-07-31T03:42:05;23.60;99.90
43049;DHT22;28673;44.412;11.918;2023-07-31T03:44:31;23.60;99.90
43049;DHT22;28673;44.412;11.918;2023-07-31T03:46:57;23.50;99.90
43049;DHT22;28673;44.412;11.918;2023-07-31T03:49:23;23.40;99.90
43049;DHT22;28673;44.412;11.918;2023-07-31T03:51:52;23.30;99.90
43049;DHT22;28673;44.412;11.918;2023-07-31T03:54:18;23.30;99.90
43049;DHT22;28673;44.412;11.918;2023-07-31T03:56:46;23.20;99.90
43049;DHT22;28673;44.412;11.918;2023-07-31T03:59:12;23.20;99.90
43049;DHT22;28673;44.412;11.918;2023-07-31T04:01:38;23.20;99.90
43049;DHT22;28673;44.412;11.918;2023-07-31T04:04:05;23.20;99.90
43049;DHT22;28673;44.412;11.918;2023-07-31T04:06:33;23.30;99.90
43049;DHT22;28673;44.412;11.918;2023-07-31T04:09:02;23.30;99.90
43049;DHT22;28673;44.412;11.918;2023-07-31T04:11:29;23.20;99.90
43049;DHT22;28673;44.412;11.918;2023-07-31T04:13:55;23.30;99.90
43049;DHT22;28673;44.412;11.918;2023-07-31T04:16:24;23.20;99.90
43049;DHT22;28673;44.412;11.918;2023-07-31T04:18:50;23.20;99.90
43049;DHT22;28673;44.412;11.918;2023-07-31T04:21:17;23.20;99.90
43049;DHT22;28673;44.412;11.918;2023-07-31T04:23:43;23.30;99.90
43049;DHT22;28673;44.412;11.918;2023-07-31T04:26:10;23.30;99.90
43049;DHT22;28673;44.412;11.918;2023-07-31T04:28:36;23.30;99.90
43049;DHT22;28673;44.412;11.918;2023-07-31T04:31:03;23.30;99.90
43049;DHT22;28673;44.412;11.918;2023-07-31T04:33:29;23.30;99.90
43049;DHT22;28673;44.412;11.918;2023-07-31T04:35:55;23.30;99.90
43049;DHT22;28673;44.412;11.918;2023-07-31T04:38:22;23.30;99.90
43049;DHT22;28673;44.412;11.918;2023-07-31T04:40:48;23.30;99.90
43049;DHT22;28673;44.412;11.918;2023-07-31T04:43:15;23.30;99.90
43049;DHT22;28673;44.412;11.918;2023-07-31T04:45:48;23.30;99.90
43049;DHT22;28673;44.412;11.918;2023-07-31T04:48:15;23.30;99.90
43049;DHT22;28673;44.412;11.918;2023-07-31T04:50:44;23.30;99.90
43049;DHT22;28673;44.412;11.918;2023-07-31T04:53:10;23.20;99.90
43049;DHT22;28673;44.412;11.918;2023-07-31T04:55:37;23.30;99.90
43049;DHT22;28673;44.412;11.918;2023-07-31T04:58:04;23.30;99.90
43049;DHT22;28673;44.412;11.918;2023-07-31T05:00:32;23.30;99.90
43049;DHT22;28673;44.412;11.918;2023-07-31T05:02:59;23.30;99.90
43049;DHT22;28673;44.412;11.918;2023-07-31T05:05:25;23.40;99.90
43049;DHT22;28673;44.412;11.918;2023-07-31T05:07:52;23.30;99.90
43049;DHT22;28673;44.412;11.918;2023-07-31T05:10:21;23.40;99.90
43049;DHT22;28673;44.412;11.918;2023-07-31T05:12:47;23.40;99.90
43049;DHT22;28673;44.412;11.918;2023-07-31T05:15:14;23.40;99.90
43049;DHT22;28673;44.412;11.918;2023-07-31T05:17:41;23.40;99.90
43049;DHT22;28673;44.412;11.918;2023-07-31T05:20:08;23.50;99.90
43049;DHT22;28673;44.412;11.918;2023-07-31T05:22:37;23.50;99.90
43049;DHT22;28673;44.412;11.918;2023-07-31T05:25:03;23.60;99.90
43049;DHT22;28673;44.412;11.918;2023-07-31T05:27:31;23.60;99.90
43049;DHT22;28673;44.412;11.918;2023-07-31T05:30:00;23.70;99.90
43049;DHT22;28673;44.412;11.918;2023-07-31T05:32:27;23.70;99.90
43049;DHT22;28673;44.412;11.918;2023-07-31T05:34:56;23.80;99.90
43049;DHT22;28673;44.412;11.918;2023-07-31T05:37:24;23.90;99.90
43049;DHT22;28673;44.412;11.918;2023-07-31T05:39:50;23.90;99.90
43049;DHT22;28673;44.412;11.918;2023-07-31T05:42:17;24.00;99.90
43049;DHT22;28673;44.412;11.918;2023-07-31T05:44:43;24.10;99.90
43049;DHT22;28673;44.412;11.918;2023-07-31T05:47:10;24.10;99.90
43049;DHT22;28673;44.412;11.918;2023-07-31T05:49:45;24.20;99.90
43049;DHT22;28673;44.412;11.918;2023-07-31T05:52:14;24.40;99.90
43049;DHT22;28673;44.412;11.918;2023-07-31T05:54:45;24.50;99.90
43049;DHT22;28673;44.412;11.918;2023-07-31T05:57:12;24.60;99.90
43049;DHT22;28673;44.412;11.918;2023-07-31T05:59:38;24.70;99.90
43049;DHT22;28673;44.412;11.918;2023-07-31T06:02:05;24.80;99.90
43049;DHT22;28673;44.412;11.918;2023-07-31T06:04:35;24.90;99.90
43049;DHT22;28673;44.412;11.918;2023-07-31T06:07:03;25.00;99.90
43049;DHT22;28673;44.412;11.918;2023-07-31T06:09:29;25.10;99.90
43049;DHT22;28673;44.412;11.918;2023-07-31T06:11:56;25.10;99.90
43049;DHT22;28673;44.412;11.918;2023-07-31T06:14:25;25.30;99.90
43049;DHT22;28673;44.412;11.918;2023-07-31T06:16:52;25.40;99.90
43049;DHT22;28673;44.412;11.918;2023-07-31T06:19:18;25.50;99.90
43049;DHT22;28673;44.412;11.918;2023-07-31T06:21:46;25.60;99.90
43049;DHT22;28673;44.412;11.918;2023-07-31T06:24:12;25.80;99.90
43049;DHT22;28673;44.412;11.918;2023-07-31T06:26:39;25.90;99.90
43049;DHT22;28673;44.412;11.918;2023-07-31T06:29:08;26.00;99.90
43049;DHT22;28673;44.412;11.918;2023-07-31T06:31:35;26.10;99.90
43049;DHT22;28673;44.412;11.918;2023-07-31T06:34:03;26.20;99.90
43049;DHT22;28673;44.412;11.918;2023-07-31T06:36:30;26.30;99.90
43049;DHT22;28673;44.412;11.918;2023-07-31T06:38:56;26.50;99.90
43049;DHT22;28673;44.412;11.918;2023-07-31T06:41:23;26.60;99.90
43049;DHT22;28673;44.412;11.918;2023-07-31T06:43:49;26.80;99.90
43049;DHT22;28673;44.412;11.918;2023-07-31T06:46:18;26.90;99.90
43049;DHT22;28673;44.412;11.918;2023-07-31T06:48:44;27.10;99.90
43049;DHT22;28673;44.412;11.918;2023-07-31T06:51:11;27.20;99.90
43049;DHT22;28673;44.412;11.918;2023-07-31T06:53:37;27.50;99.90
43049;DHT22;28673;44.412;11.918;2023-07-31T06:56:07;27.60;99.90
43049;DHT22;28673;44.412;11.918;2023-07-31T06:58:35;27.70;99.90
43049;DHT22;28673;44.412;11.918;2023-07-31T07:01:01;27.90;99.90
43049;DHT22;28673;44.412;11.918;2023-07-31T07:03:29;28.20;99.90
43049;DHT22;28673;44.412;11.918;2023-07-31T07:05:55;28.30;99.90
43049;DHT22;28673;44.412;11.918;2023-07-31T07:08:21;28.60;99.90
43049;DHT22;28673;44.412;11.918;2023-07-31T07:10:51;28.70;99.90
43049;DHT22;28673;44.412;11.918;2023-07-31T07:13:17;28.80;99.90
43049;DHT22;28673;44.412;11.918;2023-07-31T07:15:48;29.00;99.90
43049;DHT22;28673;44.412;11.918;2023-07-31T07:18:17;29.20;99.80
43049;DHT22;28673;44.412;11.918;2023-07-31T07:20:50;29.40;99.60
43049;DHT22;28673;44.412;11.918;2023-07-31T07:23:19;29.40;99.40
43049;DHT22;28673;44.412;11.918;2023-07-31T07:25:46;29.50;99.30
43049;DHT22;28673;44.412;11.918;2023-07-31T07:28:14;29.60;99.10
43049;DHT22;28673;44.412;11.918;2023-07-31T07:30:43;29.60;98.90
43049;DHT22;28673;44.412;11.918;2023-07-31T07:33:09;29.80;98.80
43049;DHT22;28673;44.412;11.918;2023-07-31T07:35:36;29.90;98.60
43049;DHT22;28673;44.412;11.918;2023-07-31T07:38:03;30.00;98.60
43049;DHT22;28673;44.412;11.918;2023-07-31T07:40:29;30.10;98.40
43049;DHT22;28673;44.412;11.918;2023-07-31T07:42:55;30.20;98.20
43049;DHT22;28673;44.412;11.918;2023-07-31T07:45:25;30.30;98.10
43049;DHT22;28673;44.412;11.918;2023-07-31T07:47:51;30.40;97.80
43049;DHT22;28673;44.412;11.918;2023-07-31T07:50:17;30.50;97.70
43049;DHT22;28673;44.412;11.918;2023-07-31T07:52:43;30.70;97.60
43049;DHT22;28673;44.412;11.918;2023-07-31T07:55:12;30.80;97.30
43049;DHT22;28673;44.412;11.918;2023-07-31T07:57:41;30.80;97.30
43049;DHT22;28673;44.412;11.918;2023-07-31T08:00:07;30.90;97.00
43049;DHT22;28673;44.412;11.918;2023-07-31T08:02:42;31.00;96.90
43049;DHT22;28673;44.412;11.918;2023-07-31T08:05:08;31.20;96.70
43049;DHT22;28673;44.412;11.918;2023-07-31T08:07:35;31.40;96.30
43049;DHT22;28673;44.412;11.918;2023-07-31T08:10:01;31.50;96.20
43049;DHT22;28673;44.412;11.918;2023-07-31T08:12:27;31.60;96.10
43049;DHT22;28673;44.412;11.918;2023-07-31T08:14:53;31.70;96.00
43049;DHT22;28673;44.412;11.918;2023-07-31T08:17:19;31.80;95.70
43049;DHT22;28673;44.412;11.918;2023-07-31T08:19:45;31.90;95.70
43049;DHT22;28673;44.412;11.918;2023-07-31T08:22:11;31.90;95.50
43049;DHT22;28673;44.412;11.918;2023-07-31T08:24:37;32.00;95.20
43049;DHT22;28673;44.412;11.918;2023-07-31T08:27:05;32.10;94.90
43049;DHT22;28673;44.412;11.918;2023-07-31T08:29:31;32.20;94.90
43049;DHT22;28673;44.412;11.918;2023-07-31T08:31:57;32.30;94.80
43049;DHT22;28673;44.412;11.918;2023-07-31T08:34:23;32.50;94.60
43049;DHT22;28673;44.412;11.918;2023-07-31T08:36:49;32.50;94.20
43049;DHT22;28673;44.412;11.918;2023-07-31T08:39:15;32.70;94.00
43049;DHT22;28673;44.412;11.918;2023-07-31T08:41:42;32.80;93.70
43049;DHT22;28673;44.412;11.918;2023-07-31T08:44:10;33.00;93.30
43049;DHT22;28673;44.412;11.918;2023-07-31T08:46:37;33.00;92.80
43049;DHT22;28673;44.412;11.918;2023-07-31T08:49:07;32.80;93.20
43049;DHT22;28673;44.412;11.918;2023-07-31T08:51:35;32.80;93.30
43049;DHT22;28673;44.412;11.918;2023-07-31T08:54:02;32.90;92.80
43049;DHT22;28673;44.412;11.918;2023-07-31T08:56:32;33.00;92.60
43049;DHT22;28673;44.412;11.918;2023-07-31T08:59:00;33.10;92.30
43049;DHT22;28673;44.412;11.918;2023-07-31T09:01:30;33.20;92.10
43049;DHT22;28673;44.412;11.918;2023-07-31T09:04:01;33.10;91.70
43049;DHT22;28673;44.412;11.918;2023-07-31T09:06:28;33.10;91.60
43049;DHT22;28673;44.412;11.918;2023-07-31T09:08:59;33.10;91.70
43049;DHT22;28673;44.412;11.918;2023-07-31T09:11:27;33.20;91.70
43049;DHT22;28673;44.412;11.918;2023-07-31T09:13:57;33.40;91.50
43049;DHT22;28673;44.412;11.918;2023-07-31T09:16:28;33.60;91.40
43049;DHT22;28673;44.412;11.918;2023-07-31T09:18:57;33.80;91.20
43049;DHT22;28673;44.412;11.918;2023-07-31T09:21:25;34.10;90.90
43049;DHT22;28673;44.412;11.918;2023-07-31T09:23:53;34.20;90.50
43049;DHT22;28673;44.412;11.918;2023-07-31T09:26:36;34.40;90.30
43049;DHT22;28673;44.412;11.918;2023-07-31T09:29:19;34.60;89.70
43049;DHT22;28673;44.412;11.918;2023-07-31T09:31:46;34.90;88.20
43049;DHT22;28673;44.412;11.918;2023-07-31T09:34:12;35.00;87.60
43049;DHT22;28673;44.412;11.918;2023-07-31T09:36:44;34.90;87.60
43049;DHT22;28673;44.412;11.918;2023-07-31T09:39:12;34.80;87.10
43049;DHT22;28673;44.412;11.918;2023-07-31T09:41:42;34.80;87.10
43049;DHT22;28673;44.412;11.918;2023-07-31T09:44:14;34.80;86.80
43049;DHT22;28673;44.412;11.918;2023-07-31T09:46:41;34.80;86.30
43049;DHT22;28673;44.412;11.918;2023-07-31T09:49:12;34.80;86.90
43049;DHT22;28673;44.412;11.918;2023-07-31T09:51:40;34.80;86.60
43049;DHT22;28673;44.412;11.918;2023-07-31T09:56:45;35.00;86.70
43049;DHT22;28673;44.412;11.918;2023-07-31T09:59:13;35.20;86.10
43049;DHT22;28673;44.412;11.918;2023-07-31T10:01:40;35.50;85.40
43049;DHT22;28673;44.412;11.918;2023-07-31T10:04:08;35.80;85.20
43049;DHT22;28673;44.412;11.918;2023-07-31T10:06:36;35.90;85.00
43049;DHT22;28673;44.412;11.918;2023-07-31T10:09:06;35.90;84.80
43049;DHT22;28673;44.412;11.918;2023-07-31T10:11:45;36.10;83.90
43049;DHT22;28673;44.412;11.918;2023-07-31T10:14:20;36.30;82.60
43049;DHT22;28673;44.412;11.918;2023-07-31T10:16:47;36.40;83.10
43049;DHT22;28673;44.412;11.918;2023-07-31T10:19:14;36.40;83.00
43049;DHT22;28673;44.412;11.918;2023-07-31T10:21:41;36.60;82.60
43049;DHT22;28673;44.412;11.918;2023-07-31T10:24:08;36.60;81.40
43049;DHT22;28673;44.412;11.918;2023-07-31T10:26:35;36.70;81.70
43049;DHT22;28673;44.412;11.918;2023-07-31T10:29:04;36.90;82.30
43049;DHT22;28673;44.412;11.918;2023-07-31T10:31:30;37.20;81.40
43049;DHT22;28673;44.412;11.918;2023-07-31T10:33:57;37.40;81.30
43049;DHT22;28673;44.412;11.918;2023-07-31T10:36:25;37.60;80.20
43049;DHT22;28673;44.412;11.918;2023-07-31T10:38:56;37.90;79.90
43049;DHT22;28673;44.412;11.918;2023-07-31T10:41:29;38.00;80.10
43049;DHT22;28673;44.412;11.918;2023-07-31T10:44:03;38.10;78.60
43049;DHT22;28673;44.412;11.918;2023-07-31T10:46:32;38.30;77.60
43049;DHT22;28673;44.412;11.918;2023-07-31T10:49:00;38.50;77.80
43049;DHT22;28673;44.412;11.918;2023-07-31T10:51:33;38.80;77.90
43049;DHT22;28673;44.412;11.918;2023-07-31T10:54:14;38.90;74.40
43049;DHT22;28673;44.412;11.918;2023-07-31T10:56:45;38.80;75.10
43049;DHT22;28673;44.412;11.918;2023-07-31T10:59:11;38.90;74.10
43049;DHT22;28673;44.412;11.918;2023-07-31T11:01:55;39.00;74.70
43049;DHT22;28673;44.412;11.918;2023-07-31T11:04:28;39.30;73.50
43049;DHT22;28673;44.412;11.918;2023-07-31T11:06:58;39.60;74.10
43049;DHT22;28673;44.412;11.918;2023-07-31T11:09:31;40.00;73.20
43049;DHT22;28673;44.412;11.918;2023-07-31T11:11:59;40.20;71.90
43049;DHT22;28673;44.412;11.918;2023-07-31T11:14:25;40.10;72.40
43049;DHT22;28673;44.412;11.918;2023-07-31T11:16:51;40.10;72.10
43049;DHT22;28673;44.412;11.918;2023-07-31T11:19:24;40.00;72.10
43049;DHT22;28673;44.412;11.918;2023-07-31T11:21:52;39.70;71.70
43049;DHT22;28673;44.412;11.918;2023-07-31T11:24:19;39.40;72.90
43049;DHT22;28673;44.412;11.918;2023-07-31T11:26:52;39.30;73.10
43049;DHT22;28673;44.412;11.918;2023-07-31T11:29:18;39.10;72.80
43049;DHT22;28673;44.412;11.918;2023-07-31T11:31:46;38.90;73.10
43049;DHT22;28673;44.412;11.918;2023-07-31T11:34:13;39.10;73.80
43049;DHT22;28673;44.412;11.918;2023-07-31T11:36:39;39.40;73.40
43049;DHT22;28673;44.412;11.918;2023-07-31T11:39:09;39.60;72.80
43049;DHT22;28673;44.412;11.918;2023-07-31T11:41:36;39.70;71.70
43049;DHT22;28673;44.412;11.918;2023-07-31T11:44:06;39.40;71.50
43049;DHT22;28673;44.412;11.918;2023-07-31T11:46:32;39.20;72.20
43049;DHT22;28673;44.412;11.918;2023-07-31T11:49:01;39.10;72.20
43049;DHT22;28673;44.412;11.918;2023-07-31T11:51:29;39.40;72.10
43049;DHT22;28673;44.412;11.918;2023-07-31T11:53:57;39.60;71.00
43049;DHT22;28673;44.412;11.918;2023-07-31T11:56:24;39.60;70.70
43049;DHT22;28673;44.412;11.918;2023-07-31T11:58:59;39.50;71.40
43049;DHT22;28673;44.412;11.918;2023-07-31T12:01:28;39.30;71.20
43049;DHT22;28673;44.412;11.918;2023-07-31T12:03:54;39.10;71.10
43049;DHT22;28673;44.412;11.918;2023-07-31T12:06:21;39.10;70.70
43049;DHT22;28673;44.412;11.918;2023-07-31T12:08:47;38.90;71.00
43049;DHT22;28673;44.412;11.918;2023-07-31T12:11:13;38.80;71.50
43049;DHT22;28673;44.412;11.918;2023-07-31T12:13:40;38.60;71.50
43049;DHT22;28673;44.412;11.918;2023-07-31T12:16:06;38.40;72.00
43049;DHT22;28673;44.412;11.918;2023-07-31T12:18:37;38.30;72.40
43049;DHT22;28673;44.412;11.918;2023-07-31T12:21:08;38.30;72.80
43049;DHT22;28673;44.412;11.918;2023-07-31T12:23:37;38.40;71.60
43049;DHT22;28673;44.412;11.918;2023-07-31T12:26:16;38.40;72.40
43049;DHT22;28673;44.412;11.918;2023-07-31T12:28:44;38.40;71.10
43049;DHT22;28673;44.412;11.918;2023-07-31T12:31:12;38.40;72.60
43049;DHT22;28673;44.412;11.918;2023-07-31T12:33:39;38.50;72.60
43049;DHT22;28673;44.412;11.918;2023-07-31T12:36:11;38.60;72.00
43049;DHT22;28673;44.412;11.918;2023-07-31T12:38:37;38.80;71.80
43049;DHT22;28673;44.412;11.918;2023-07-31T12:41:03;39.00;72.20
43049;DHT22;28673;44.412;11.918;2023-07-31T12:43:29;39.10;71.40
43049;DHT22;28673;44.412;11.918;2023-07-31T12:45:55;39.30;71.30
43049;DHT22;28673;44.412;11.918;2023-07-31T12:48:22;39.60;71.10
43049;DHT22;28673;44.412;11.918;2023-07-31T12:50:48;39.70;70.80
43049;DHT22;28673;44.412;11.918;2023-07-31T12:53:15;40.00;70.30
43049;DHT22;28673;44.412;11.918;2023-07-31T12:55:41;40.10;69.30
43049;DHT22;28673;44.412;11.918;2023-07-31T12:58:07;40.00;69.50
43049;DHT22;28673;44.412;11.918;2023-07-31T13:00:33;40.20;70.00
43049;DHT22;28673;44.412;11.918;2023-07-31T13:02:59;40.50;69.20
43049;DHT22;28673;44.412;11.918;2023-07-31T13:05:26;40.70;68.50
43049;DHT22;28673;44.412;11.918;2023-07-31T13:07:52;40.70;67.90
43049;DHT22;28673;44.412;11.918;2023-07-31T13:10:18;40.50;68.10
43049;DHT22;28673;44.412;11.918;2023-07-31T13:12:44;40.20;68.30
43049;DHT22;28673;44.412;11.918;2023-07-31T13:15:10;40.00;68.80
43049;DHT22;28673;44.412;11.918;2023-07-31T13:17:36;40.10;68.60
43049;DHT22;28673;44.412;11.918;2023-07-31T13:20:03;40.10;68.30
43049;DHT22;28673;44.412;11.918;2023-07-31T13:22:30;40.10;68.40
43049;DHT22;28673;44.412;11.918;2023-07-31T13:24:56;39.60;68.40
43049;DHT22;28673;44.412;11.918;2023-07-31T13:27:22;39.20;68.90
43049;DHT22;28673;44.412;11.918;2023-07-31T13:29:49;38.70;69.90
43049;DHT22;28673;44.412;11.918;2023-07-31T13:32:16;38.00;70.20
43049;DHT22;28673;44.412;11.918;2023-07-31T13:34:43;37.50;70.90
43049;DHT22;28673;44.412;11.918;2023-07-31T13:37:09;37.00;71.80
43049;DHT22;28673;44.412;11.918;2023-07-31T13:39:37;36.50;72.70
43049;DHT22;28673;44.412;11.918;2023-07-31T13:42:04;36.20;73.00
43049;DHT22;28673;44.412;11.918;2023-07-31T13:44:32;36.20;73.50
43049;DHT22;28673;44.412;11.918;2023-07-31T13:46:59;36.20;73.50
43049;DHT22;28673;44.412;11.918;2023-07-31T13:49:29;36.40;73.80
43049;DHT22;28673;44.412;11.918;2023-07-31T13:51:55;36.70;73.70
43049;DHT22;28673;44.412;11.918;2023-07-31T13:54:22;36.90;73.80
43049;DHT22;28673;44.412;11.918;2023-07-31T13:56:54;37.20;72.90
43049;DHT22;28673;44.412;11.918;2023-07-31T13:59:20;37.50;73.00
43049;DHT22;28673;44.412;11.918;2023-07-31T14:01:47;37.80;73.50
43049;DHT22;28673;44.412;11.918;2023-07-31T14:04:13;38.10;72.80
43049;DHT22;28673;44.412;11.918;2023-07-31T14:06:39;38.30;72.80
43049;DHT22;28673;44.412;11.918;2023-07-31T14:09:08;38.50;72.30
43049;DHT22;28673;44.412;11.918;2023-07-31T14:11:34;38.80;72.00
43049;DHT22;28673;44.412;11.918;2023-07-31T14:14:00;38.90;71.60
43049;DHT22;28673;44.412;11.918;2023-07-31T14:16:30;39.00;71.00
43049;DHT22;28673;44.412;11.918;2023-07-31T14:18:56;38.90;70.20
43049;DHT22;28673;44.412;11.918;2023-07-31T14:21:25;38.80;70.00
43049;DHT22;28673;44.412;11.918;2023-07-31T14:23:52;38.90;70.00
43049;DHT22;28673;44.412;11.918;2023-07-31T14:26:18;39.00;70.20
43049;DHT22;28673;44.412;11.918;2023-07-31T14:28:44;39.10;70.50
43049;DHT22;28673;44.412;11.918;2023-07-31T14:31:10;39.20;70.10
43049;DHT22;28673;44.412;11.918;2023-07-31T14:33:36;39.10;69.50
43049;DHT22;28673;44.412;11.918;2023-07-31T14:36:02;39.00;69.90
43049;DHT22;28673;44.412;11.918;2023-07-31T14:38:31;39.00;70.40
43049;DHT22;28673;44.412;11.918;2023-07-31T14:40:57;39.00;70.60
43049;DHT22;28673;44.412;11.918;2023-07-31T14:43:23;39.00;70.50
43049;DHT22;28673;44.412;11.918;2023-07-31T14:45:49;39.00;70.40
43049;DHT22;28673;44.412;11.918;2023-07-31T14:48:15;39.00;69.50
43049;DHT22;28673;44.412;11.918;2023-07-31T14:50:41;38.90;69.80
43049;DHT22;28673;44.412;11.918;2023-07-31T14:53:08;38.80;69.70
43049;DHT22;28673;44.412;11.918;2023-07-31T14:55:34;38.60;70.10
43049;DHT22;28673;44.412;11.918;2023-07-31T14:58:00;38.50;70.00
43049;DHT22;28673;44.412;11.918;2023-07-31T15:00:28;38.40;70.30
43049;DHT22;28673;44.412;11.918;2023-07-31T15:02:54;38.40;70.60
43049;DHT22;28673;44.412;11.918;2023-07-31T15:05:20;38.50;70.70
43049;DHT22;28673;44.412;11.918;2023-07-31T15:07:47;38.50;70.50
43049;DHT22;28673;44.412;11.918;2023-07-31T15:10:13;38.50;70.50
43049;DHT22;28673;44.412;11.918;2023-07-31T15:12:40;38.50;70.30
43049;DHT22;28673;44.412;11.918;2023-07-31T15:15:08;38.40;70.60
43049;DHT22;28673;44.412;11.918;2023-07-31T15:17:34;38.40;70.40
43049;DHT22;28673;44.412;11.918;2023-07-31T15:20:00;38.30;70.60
43049;DHT22;28673;44.412;11.918;2023-07-31T15:22:26;38.30;70.50
43049;DHT22;28673;44.412;11.918;2023-07-31T15:24:52;38.10;70.30
43049;DHT22;28673;44.412;11.918;2023-07-31T15:27:19;38.10;70.50